Time;durP1;ratioP1;P1;durP2;ratioP2;P2;SDS_P1;SDS_P2;PMS_P1;PMS_P2;Temp;Humidity;BMP_temperature;BMP_pressure;BME280_temperature;BME280_humidity;BME280_pressure;Samples;Min_cycle;Max_cycle;Signal;HPM_P1;HPM_P2
2022/10/11 00:04:46;;;;;;;9.15;3.45;;;;;;;;;;10535300;28;20421;-44
2022/10/11 00:09:46;;;;;;;7.33;2.23;;;;;;;;;;10534698;28;20455;-48
2022/10/11 00:14:47;;;;;;;7.30;2.20;;;;;;;;;;10533933;28;21027;-44
2022/10/11 00:19:47;;;;;;;4.65;2.38;;;;;;;;;;10534532;28;20584;-44
2022/10/11 00:24:47;;;;;;;7.68;2.38;;;;;;;;;;10533712;28;20074;-44
2022/10/11 00:29:48;;;;;;;6.50;2.58;;;;;;;;;;10533149;28;20055;-45
2022/10/11 00:34:48;;;;;;;7.40;2.90;;;;;;;;;;10533436;28;20024;-46
2022/10/11 00:39:48;;;;;;;8.53;2.43;;;;;;;;;;10534077;28;20107;-44
2022/10/11 00:44:49;;;;;;;5.70;2.50;;;;;;;;;;10533363;28;20025;-45
2022/10/11 00:49:49;;;;;;;6.85;2.17;;;;;;;;;;10533189;28;20036;-45
2022/10/11 00:54:50;;;;;;;13.18;2.85;;;;;;;;;;10533240;28;20109;-46
2022/10/11 00:59:52;;;;;;;3.58;2.30;;;;;;;;;;10532630;28;20066;-44
2022/10/11 01:04:53;;;;;;;3.97;2.55;;;;;;;;;;10539416;28;20459;-45
2022/10/11 01:09:53;;;;;;;5.35;2.60;;;;;;;;;;10541779;28;20032;-45
2022/10/11 01:14:54;;;;;;;4.10;2.60;;;;;;;;;;10541084;28;20114;-45
2022/10/11 01:20:13;;;;;;;5.85;2.47;;;;;;;;;;10541069;28;20028;-46
2022/10/11 01:25:16;;;;;;;6.38;2.47;;;;;;;;;;10540770;28;20016;-44
2022/10/11 01:30:35;;;;;;;4.82;2.47;;;;;;;;;;10540290;28;20062;-44
2022/10/11 01:35:44;;;;;;;3.45;2.20;;;;;;;;;;10540788;28;20031;-46
2022/10/11 01:40:47;;;;;;;4.75;2.00;;;;;;;;;;10540773;28;20096;-44
2022/10/11 01:45:49;;;;;;;5.45;2.20;;;;;;;;;;10540349;28;20024;-44
2022/10/11 01:50:54;;;;;;;4.35;2.35;;;;;;;;;;10540066;28;20039;-44
2022/10/11 01:55:58;;;;;;;3.60;2.25;;;;;;;;;;10539963;28;20055;-44
2022/10/11 02:00:58;;;;;;;4.47;2.22;;;;;;;;;;10539094;28;20024;-45
2022/10/11 02:06:17;;;;;;;3.97;2.40;;;;;;;;;;10539075;28;20040;-60
2022/10/11 02:11:23;;;;;;;5.90;2.33;;;;;;;;;;10539090;28;20036;-48
2022/10/11 02:16:36;;;;;;;3.03;2.13;;;;;;;;;;10538161;28;20031;-55
2022/10/11 02:21:38;;;;;;;3.85;2.08;;;;;;;;;;10538673;28;20036;-48
2022/10/11 02:26:40;;;;;;;4.20;2.42;;;;;;;;;;10538075;28;20479;-52
2022/10/11 02:31:42;;;;;;;4.95;2.55;;;;;;;;;;10537432;28;20044;-53
2022/10/11 02:37:21;;;;;;;2.63;2.28;;;;;;;;;;10537972;28;20270;-45
2022/10/11 02:42:31;;;;;;;6.53;2.78;;;;;;;;;;10531287;28;20119;-45
2022/10/11 02:47:32;;;;;;;3.45;2.08;;;;;;;;;;10530681;28;20098;-45
2022/10/11 02:52:32;;;;;;;3.70;2.05;;;;;;;;;;10530847;28;20040;-57
2022/10/11 02:57:32;;;;;;;5.32;2.40;;;;;;;;;;10530973;28;20043;-60
2022/10/11 03:02:33;;;;;;;4.10;2.27;;;;;;;;;;10530732;28;20024;-59
2022/10/11 03:07:33;;;;;;;2.25;2.05;;;;;;;;;;10530584;28;20043;-57
2022/10/11 03:12:33;;;;;;;3.13;2.10;;;;;;;;;;10534015;28;20036;-54
2022/10/11 03:17:33;;;;;;;4.50;2.42;;;;;;;;;;10536427;28;20479;-51
2022/10/11 03:22:34;;;;;;;3.90;2.38;;;;;;;;;;10535981;28;20078;-49
2022/10/11 03:27:34;;;;;;;2.47;2.00;;;;;;;;;;10536107;28;20353;-47
2022/10/11 03:32:34;;;;;;;2.45;1.80;;;;;;;;;;10535596;28;20062;-47
2022/10/11 03:37:35;;;;;;;3.70;2.58;;;;;;;;;;10535498;28;20395;-46
2022/10/11 03:42:35;;;;;;;3.75;1.92;;;;;;;;;;10535346;28;20028;-48
2022/10/11 03:47:36;;;;;;;2.40;2.10;;;;;;;;;;10535562;28;20352;-45
2022/10/11 03:52:37;;;;;;;5.32;2.20;;;;;;;;;;10534778;28;20032;-47
2022/10/11 03:57:37;;;;;;;2.40;2.20;;;;;;;;;;10534766;28;20028;-45
2022/10/11 04:02:37;;;;;;;4.80;2.53;;;;;;;;;;10534820;28;20057;-48
2022/10/11 04:07:38;;;;;;;2.63;2.25;;;;;;;;;;10534294;28;20028;-46
2022/10/11 04:12:38;;;;;;;5.63;2.47;;;;;;;;;;10534000;28;20065;-45
2022/10/11 04:17:39;;;;;;;2.70;2.17;;;;;;;;;;10533967;28;20035;-45
2022/10/11 04:22:39;;;;;;;2.00;1.80;;;;;;;;;;10533891;28;20210;-45
2022/10/11 04:27:40;;;;;;;2.55;1.70;;;;;;;;;;10533556;28;20036;-45
2022/10/11 04:32:40;;;;;;;3.15;2.25;;;;;;;;;;10533489;28;20036;-45
2022/10/11 04:37:40;;;;;;;3.35;1.75;;;;;;;;;;10532985;28;20024;-45
2022/10/11 04:42:40;;;;;;;2.22;2.03;;;;;;;;;;10533790;28;20035;-47
2022/10/11 04:47:41;;;;;;;4.22;2.58;;;;;;;;;;10533172;28;20024;-58
2022/10/11 04:52:42;;;;;;;2.22;1.73;;;;;;;;;;10533663;28;20061;-58
2022/10/11 04:57:42;;;;;;;2.10;1.90;;;;;;;;;;10533239;28;20024;-45
2022/10/11 05:02:42;;;;;;;3.90;2.47;;;;;;;;;;10531782;28;20031;-46
2022/10/11 05:07:43;;;;;;;2.28;2.03;;;;;;;;;;10532870;28;20020;-45
2022/10/11 05:12:43;;;;;;;3.47;1.98;;;;;;;;;;10532864;28;20032;-48
2022/10/11 05:17:43;;;;;;;4.18;2.13;;;;;;;;;;10531918;28;20028;-45
2022/10/11 05:22:43;;;;;;;2.55;1.95;;;;;;;;;;10531672;28;20387;-45
2022/10/11 05:27:44;;;;;;;2.28;1.92;;;;;;;;;;10529857;28;21130;-44
2022/10/11 05:32:44;;;;;;;5.87;2.70;;;;;;;;;;10530743;28;20047;-46
2022/10/11 05:37:45;;;;;;;4.63;2.33;;;;;;;;;;10530778;28;20445;-45
2022/10/11 05:42:45;;;;;;;5.57;2.53;;;;;;;;;;10531911;28;20077;-48
2022/10/11 05:47:45;;;;;;;4.47;2.90;;;;;;;;;;10531531;28;20024;-45
2022/10/11 05:52:45;;;;;;;4.55;3.13;;;;;;;;;;10538219;28;20028;-47
2022/10/11 05:57:46;;;;;;;11.27;3.90;;;;;;;;;;10537789;28;20032;-47
2022/10/11 06:02:46;;;;;;;14.98;3.97;;;;;;;;;;10537028;28;20032;-48
2022/10/11 06:07:46;;;;;;;17.67;4.60;;;;;;;;;;10538089;28;20035;-45
2022/10/11 06:12:47;;;;;;;14.80;4.50;;;;;;;;;;10538238;28;20085;-46
2022/10/11 06:17:47;;;;;;;8.15;3.55;;;;;;;;;;10538035;28;20031;-48
2022/10/11 06:22:47;;;;;;;10.52;3.55;;;;;;;;;;10535916;28;20020;-46
2022/10/11 06:27:48;;;;;;;8.23;3.70;;;;;;;;;;10537922;28;20380;-47
2022/10/11 06:32:48;;;;;;;6.85;3.70;;;;;;;;;;10537747;28;20151;-49
2022/10/11 06:37:48;;;;;;;7.00;3.22;;;;;;;;;;10537907;28;20441;-46
2022/10/11 06:42:49;;;;;;;6.88;3.35;;;;;;;;;;10537672;28;20467;-49
2022/10/11 06:47:49;;;;;;;7.60;3.20;;;;;;;;;;10537309;28;20115;-48
2022/10/11 06:52:49;;;;;;;6.40;3.22;;;;;;;;;;10536145;28;20059;-47
2022/10/11 06:57:50;;;;;;;10.90;4.15;;;;;;;;;;10536574;28;20028;-47
2022/10/11 07:02:50;;;;;;;5.70;2.72;;;;;;;;;;10535681;28;20022;-55
2022/10/11 07:07:50;;;;;;;4.25;2.58;;;;;;;;;;10536377;28;20074;-46
2022/10/11 07:12:50;;;;;;;10.30;4.03;;;;;;;;;;10535528;28;20129;-54
2022/10/11 07:17:51;;;;;;;8.30;3.60;;;;;;;;;;10535156;28;20059;-52
2022/10/11 07:22:51;;;;;;;8.48;3.00;;;;;;;;;;10534770;28;20024;-46
2022/10/11 07:27:51;;;;;;;8.48;3.55;;;;;;;;;;10534573;28;20123;-50
2022/10/11 07:32:51;;;;;;;5.18;3.33;;;;;;;;;;10532359;28;20035;-59
2022/10/11 07:37:52;;;;;;;6.28;3.10;;;;;;;;;;10534106;28;20020;-50
2022/10/11 07:42:52;;;;;;;6.53;3.92;;;;;;;;;;10535077;28;20024;-47
2022/10/11 07:47:53;;;;;;;7.97;3.45;;;;;;;;;;10535024;28;20610;-48
2022/10/11 07:52:54;;;;;;;9.10;3.63;;;;;;;;;;10534758;28;20031;-44
2022/10/11 07:57:54;;;;;;;4.30;2.80;;;;;;;;;;10534625;28;20031;-45
2022/10/11 08:02:54;;;;;;;5.88;2.90;;;;;;;;;;10535029;28;20054;-49
2022/10/11 08:07:55;;;;;;;5.72;3.75;;;;;;;;;;10534481;28;20055;-57
2022/10/11 08:12:55;;;;;;;5.97;3.27;;;;;;;;;;10533330;28;20452;-58
2022/10/11 08:17:55;;;;;;;7.03;3.10;;;;;;;;;;10533775;28;20442;-58
2022/10/11 08:22:56;;;;;;;4.22;3.00;;;;;;;;;;10533932;28;20066;-56
2022/10/11 08:27:56;;;;;;;6.35;3.03;;;;;;;;;;10532308;28;20056;-58
2022/10/11 08:32:56;;;;;;;4.97;3.33;;;;;;;;;;10533758;28;20621;-46
2022/10/11 08:38:24;;;;;;;5.40;3.20;;;;;;;;;;10533010;28;20043;-54
2022/10/11 08:43:24;;;;;;;5.40;3.15;;;;;;;;;;10533069;28;20042;-59
2022/10/11 08:48:29;;;;;;;3.63;2.95;;;;;;;;;;10532353;28;20451;-48
2022/10/11 08:53:32;;;;;;;5.63;3.20;;;;;;;;;;10532963;28;20051;-52
2022/10/11 08:58:38;;;;;;;6.55;3.40;;;;;;;;;;10533269;28;20024;-51
2022/10/11 09:03:40;;;;;;;5.10;3.17;;;;;;;;;;10532693;28;20027;-54
2022/10/11 09:09:04;;;;;;;5.57;3.40;;;;;;;;;;10532874;28;20487;-49
2022/10/11 09:14:25;;;;;;;4.47;2.70;;;;;;;;;;10532955;28;20073;-48
2022/10/11 09:19:28;;;;;;;7.43;3.38;;;;;;;;;;10532612;28;20541;-52
2022/10/11 09:24:46;;;;;;;4.38;2.95;;;;;;;;;;10536861;28;20046;-47
2022/10/11 09:29:51;;;;;;;3.88;2.75;;;;;;;;;;10538606;28;20054;-46
2022/10/11 09:34:55;;;;;;;5.53;2.95;;;;;;;;;;10539899;28;20032;-58
2022/10/11 09:39:58;;;;;;;5.25;2.95;;;;;;;;;;10538153;28;20024;-48
2022/10/11 09:44:59;;;;;;;6.20;2.85;;;;;;;;;;10538697;28;20065;-45
2022/10/11 09:50:20;;;;;;;6.70;3.50;;;;;;;;;;10538255;28;20506;-47
2022/10/11 09:55:32;;;;;;;7.20;3.78;;;;;;;;;;10538477;28;20364;-46
2022/10/11 10:00:33;;;;;;;3.97;2.70;;;;;;;;;;10538990;28;20428;-47
2022/10/11 10:05:35;;;;;;;7.15;3.30;;;;;;;;;;10538860;28;20145;-46
2022/10/11 10:10:37;;;;;;;5.32;3.00;;;;;;;;;;10539048;28;20090;-48
2022/10/11 10:15:43;;;;;;;3.67;2.63;;;;;;;;;;10539621;28;20076;-46
2022/10/11 10:20:49;;;;;;;5.32;3.17;;;;;;;;;;10539299;28;20032;-50
2022/10/11 10:25:50;;;;;;;4.97;3.10;;;;;;;;;;10538748;28;20099;-46
2022/10/11 10:30:53;;;;;;;4.47;3.03;;;;;;;;;;10538293;28;20058;-52
2022/10/11 10:36:01;;;;;;;4.30;2.70;;;;;;;;;;10537571;28;20050;-49
2022/10/11 10:41:04;;;;;;;4.82;2.92;;;;;;;;;;10537935;28;20483;-45
2022/10/11 10:46:05;;;;;;;6.47;2.97;;;;;;;;;;10537807;28;20395;-45
2022/10/11 10:51:16;;;;;;;5.63;3.10;;;;;;;;;;10537625;28;20024;-51
2022/10/11 10:56:29;;;;;;;6.75;3.17;;;;;;;;;;10537981;28;20039;-47
2022/10/11 11:01:36;;;;;;;5.18;2.88;;;;;;;;;;10537204;28;20054;-49
2022/10/11 11:06:45;;;;;;;5.43;2.80;;;;;;;;;;10536932;28;20093;-47
2022/10/11 11:11:45;;;;;;;6.03;3.13;;;;;;;;;;10536968;28;20064;-50
2022/10/11 11:16:54;;;;;;;3.35;2.72;;;;;;;;;;10536505;28;20044;-48
2022/10/11 11:22:01;;;;;;;5.50;3.00;;;;;;;;;;10536205;28;20408;-47
2022/10/11 11:27:04;;;;;;;4.03;2.92;;;;;;;;;;10536224;28;20028;-55
2022/10/11 11:32:07;;;;;;;3.38;3.00;;;;;;;;;;10535609;28;20051;-46
2022/10/11 11:37:18;;;;;;;4.65;3.05;;;;;;;;;;10536135;28;20035;-47
2022/10/11 11:42:25;;;;;;;3.72;2.67;;;;;;;;;;10535515;28;20032;-49
2022/10/11 11:47:30;;;;;;;4.10;2.75;;;;;;;;;;10534276;28;20115;-49
2022/10/11 11:52:39;;;;;;;7.60;3.03;;;;;;;;;;10534889;28;20333;-46
2022/10/11 11:57:40;;;;;;;3.03;2.58;;;;;;;;;;10534680;28;20024;-49
2022/10/11 12:02:52;;;;;;;2.67;2.45;;;;;;;;;;10534447;28;20071;-58
2022/10/11 12:07:59;;;;;;;4.25;2.50;;;;;;;;;;10533392;28;20032;-45
2022/10/11 12:13:16;;;;;;;4.03;2.70;;;;;;;;;;10534645;28;20030;-48
2022/10/11 12:18:17;;;;;;;6.22;3.00;;;;;;;;;;10533937;28;20395;-48
2022/10/11 12:23:17;;;;;;;4.10;2.57;;;;;;;;;;10534330;28;20115;-48
2022/10/11 12:28:35;;;;;;;3.58;2.67;;;;;;;;;;10533498;28;20064;-46
2022/10/11 12:33:35;;;;;;;5.03;2.88;;;;;;;;;;10532269;28;20412;-46
2022/10/11 12:38:38;;;;;;;4.80;2.85;;;;;;;;;;10532907;28;20043;-48
2022/10/11 12:43:48;;;;;;;5.25;2.72;;;;;;;;;;10532742;28;20023;-44
2022/10/11 12:48:55;;;;;;;2.78;2.50;;;;;;;;;;10532756;28;20024;-46
2022/10/11 12:54:07;;;;;;;2.90;2.60;;;;;;;;;;10532922;28;20107;-45
2022/10/11 12:59:13;;;;;;;3.78;2.78;;;;;;;;;;10536664;28;20495;-47
2022/10/11 13:04:15;;;;;;;9.63;2.67;;;;;;;;;;10541261;28;20066;-45
2022/10/11 13:09:22;;;;;;;4.75;2.90;;;;;;;;;;10541018;28;20020;-44
2022/10/11 13:14:23;;;;;;;5.78;2.83;;;;;;;;;;10540558;28;20043;-45
2022/10/11 13:19:24;;;;;;;3.45;2.17;;;;;;;;;;10540932;28;20032;-48
2022/10/11 13:24:26;;;;;;;6.72;3.25;;;;;;;;;;10540343;28;20032;-49
2022/10/11 13:29:32;;;;;;;6.38;3.08;;;;;;;;;;10539426;28;20125;-45
2022/10/11 13:34:35;;;;;;;3.55;2.42;;;;;;;;;;10540413;28;20042;-45
2022/10/11 13:39:37;;;;;;;5.95;2.42;;;;;;;;;;10539266;28;20030;-47
2022/10/11 13:44:38;;;;;;;6.15;2.80;;;;;;;;;;10538719;28;20132;-47
2022/10/11 13:49:42;;;;;;;3.97;2.80;;;;;;;;;;10540412;28;20043;-47
2022/10/11 13:54:53;;;;;;;3.00;2.17;;;;;;;;;;10539770;28;20480;-45
2022/10/11 13:59:53;;;;;;;3.00;2.70;;;;;;;;;;10539585;28;20036;-45
2022/10/11 14:04:53;;;;;;;3.38;2.58;;;;;;;;;;10539061;28;20024;-46
2022/10/11 14:09:54;;;;;;;3.42;2.30;;;;;;;;;;10537484;28;20028;-45
2022/10/11 14:14:56;;;;;;;3.40;2.33;;;;;;;;;;10538805;28;20070;-49
2022/10/11 14:20:11;;;;;;;4.53;2.53;;;;;;;;;;10539040;28;20036;-49
2022/10/11 14:25:12;;;;;;;3.10;2.17;;;;;;;;;;10538910;28;20024;-48
2022/10/11 14:30:13;;;;;;;5.43;2.75;;;;;;;;;;10538919;28;20052;-48
2022/10/11 14:35:15;;;;;;;5.00;2.60;;;;;;;;;;10538100;28;20081;-47
2022/10/11 14:40:17;;;;;;;3.80;2.63;;;;;;;;;;10538498;28;20028;-46
2022/10/11 14:45:19;;;;;;;2.80;2.25;;;;;;;;;;10538016;28;20077;-48
2022/10/11 14:50:32;;;;;;;6.35;2.50;;;;;;;;;;10537400;28;20036;-49
2022/10/11 14:55:34;;;;;;;3.35;2.60;;;;;;;;;;10537768;28;20104;-51
2022/10/11 15:00:35;;;;;;;3.35;2.40;;;;;;;;;;10536951;28;20047;-48
2022/10/11 15:05:35;;;;;;;2.90;2.25;;;;;;;;;;10535198;28;20028;-44
2022/10/11 15:10:37;;;;;;;5.60;2.50;;;;;;;;;;10529750;28;20099;-50
2022/10/11 15:15:40;;;;;;;2.97;2.20;;;;;;;;;;10536201;28;20531;-46
2022/10/11 15:20:41;;;;;;;3.55;2.70;;;;;;;;;;10535963;28;20050;-51
2022/10/11 15:25:42;;;;;;;10.82;2.90;;;;;;;;;;10535327;28;20024;-45
2022/10/11 15:30:42;;;;;;;4.32;3.03;;;;;;;;;;10535551;28;20047;-46
2022/10/11 15:35:42;;;;;;;5.78;2.70;;;;;;;;;;10534616;28;20016;-48
2022/10/11 15:40:43;;;;;;;4.80;2.50;;;;;;;;;;10534073;28;20149;-48
2022/10/11 15:45:43;;;;;;;6.00;2.58;;;;;;;;;;10533822;28;20027;-45
2022/10/11 15:50:44;;;;;;;7.20;2.75;;;;;;;;;;10534676;28;20085;-48
2022/10/11 15:55:46;;;;;;;3.40;2.42;;;;;;;;;;10534434;28;20024;-45
2022/10/11 16:00:47;;;;;;;3.70;2.63;;;;;;;;;;10534560;28;20155;-46
2022/10/11 16:05:48;;;;;;;8.10;3.00;;;;;;;;;;10534054;28;20032;-45
2022/10/11 16:10:48;;;;;;;3.17;2.70;;;;;;;;;;10534995;28;20429;-45
2022/10/11 16:15:48;;;;;;;4.65;2.63;;;;;;;;;;10532870;28;20060;-45
2022/10/11 16:20:50;;;;;;;5.97;2.67;;;;;;;;;;10533939;28;20085;-45
2022/10/11 16:25:58;;;;;;;3.53;2.40;;;;;;;;;;10534004;28;20027;-45
2022/10/11 16:30:59;;;;;;;4.38;2.40;;;;;;;;;;10532985;28;20182;-45
2022/10/11 16:36:30;;;;;;;3.60;2.85;;;;;;;;;;10532982;28;20578;-46
2022/10/11 16:41:20;;;;;;;6.55;2.83;;;;;;;;;;10532668;28;20052;-44
2022/10/11 16:46:20;;;;;;;3.38;2.47;;;;;;;;;;10532970;28;20051;-45
2022/10/11 16:51:22;;;;;;;5.97;2.53;;;;;;;;;;10531210;28;20031;-45
2022/10/11 16:56:23;;;;;;;10.18;3.30;;;;;;;;;;10530870;28;20415;-45
2022/10/11 17:01:24;;;;;;;8.60;3.10;;;;;;;;;;10531997;28;20039;-44
2022/10/11 17:06:25;;;;;;;7.25;2.95;;;;;;;;;;10532706;28;20360;-46
2022/10/11 17:11:25;;;;;;;9.13;2.67;;;;;;;;;;10531807;28;20032;-57
2022/10/11 17:16:25;;;;;;;11.90;3.25;;;;;;;;;;10532104;28;20024;-46
2022/10/11 17:21:26;;;;;;;5.82;3.38;;;;;;;;;;10533013;28;20479;-45
2022/10/11 17:26:26;;;;;;;7.33;3.93;;;;;;;;;;10531624;28;20027;-56
2022/10/11 17:31:27;;;;;;;5.93;3.70;;;;;;;;;;10531764;28;20473;-46
2022/10/11 17:36:35;;;;;;;6.35;3.20;;;;;;;;;;10532309;28;20033;-45
2022/10/11 17:41:35;;;;;;;11.38;3.83;;;;;;;;;;10531494;28;20031;-45
2022/10/11 17:46:35;;;;;;;11.27;3.30;;;;;;;;;;10536059;28;20031;-50
2022/10/11 17:51:36;;;;;;;8.57;3.33;;;;;;;;;;10540216;28;20036;-46
2022/10/11 17:56:37;;;;;;;7.38;3.38;;;;;;;;;;10539471;28;20471;-47
2022/10/11 18:01:37;;;;;;;10.43;4.07;;;;;;;;;;10539727;28;20054;-46
2022/10/11 18:06:38;;;;;;;12.63;3.78;;;;;;;;;;10538843;28;20020;-46
2022/10/11 18:11:38;;;;;;;6.07;3.72;;;;;;;;;;10538528;28;20028;-46
2022/10/11 18:16:39;;;;;;;10.50;3.97;;;;;;;;;;10538816;28;20024;-45
2022/10/11 18:21:39;;;;;;;5.97;3.42;;;;;;;;;;10538534;28;20372;-45
2022/10/11 18:26:40;;;;;;;10.13;4.93;;;;;;;;;;10538504;28;20024;-44
2022/10/11 18:31:41;;;;;;;9.38;4.38;;;;;;;;;;10537409;28;20547;-45
2022/10/11 18:36:41;;;;;;;10.68;4.03;;;;;;;;;;10537335;28;20028;-45
2022/10/11 18:41:43;;;;;;;14.23;3.83;;;;;;;;;;10537957;28;20028;-47
2022/10/11 18:46:44;;;;;;;8.30;4.00;;;;;;;;;;10538154;28;20032;-47
2022/10/11 18:51:45;;;;;;;8.90;4.20;;;;;;;;;;10537071;28;20452;-45
2022/10/11 18:56:45;;;;;;;8.48;4.53;;;;;;;;;;10536656;28;20027;-45
2022/10/11 19:01:46;;;;;;;11.25;4.03;;;;;;;;;;10537117;28;20035;-46
2022/10/11 19:06:47;;;;;;;15.68;4.78;;;;;;;;;;10536604;28;20063;-45
2022/10/11 19:11:49;;;;;;;10.05;4.53;;;;;;;;;;10536546;28;20594;-46
2022/10/11 19:16:50;;;;;;;12.10;4.68;;;;;;;;;;10536249;28;20031;-44
2022/10/11 19:21:50;;;;;;;16.50;4.13;;;;;;;;;;10536616;28;20031;-46
2022/10/11 19:26:52;;;;;;;8.98;4.43;;;;;;;;;;10535893;28;20371;-45
2022/10/11 19:31:54;;;;;;;13.15;4.80;;;;;;;;;;10534580;28;20407;-45
2022/10/11 19:36:55;;;;;;;6.63;4.20;;;;;;;;;;10535894;28;20078;-46
2022/10/11 19:41:55;;;;;;;11.10;4.38;;;;;;;;;;10535049;28;20043;-45
2022/10/11 19:46:56;;;;;;;12.90;4.63;;;;;;;;;;10535043;28;20023;-45
2022/10/11 19:51:56;;;;;;;7.35;4.32;;;;;;;;;;10534844;28;20457;-45
2022/10/11 19:56:56;;;;;;;11.82;4.30;;;;;;;;;;10534583;28;20119;-45
2022/10/11 20:07:17;;;;;;;10.93;5.35;;;;;;;;;;10569412;28;20036;-45
2022/10/11 20:12:17;;;;;;;12.73;4.60;;;;;;;;;;10569820;28;20047;-45
2022/10/11 20:17:18;;;;;;;12.75;5.03;;;;;;;;;;10569232;28;20179;-45
2022/10/11 20:22:18;;;;;;;7.03;3.95;;;;;;;;;;10569153;28;20040;-50
2022/10/11 20:27:18;;;;;;;11.00;4.25;;;;;;;;;;10568785;28;20398;-46
2022/10/11 20:32:19;;;;;;;11.05;4.68;;;;;;;;;;10568513;28;20445;-44
2022/10/11 20:37:19;;;;;;;6.03;3.77;;;;;;;;;;10569007;28;20059;-45
2022/10/11 20:42:19;;;;;;;12.07;4.35;;;;;;;;;;10556745;28;20036;-45
2022/10/11 20:47:19;;;;;;;13.52;4.47;;;;;;;;;;10532392;28;20032;-45
2022/10/11 20:52:20;;;;;;;7.70;3.70;;;;;;;;;;10532090;28;20032;-46
2022/10/11 20:57:21;;;;;;;7.68;4.40;;;;;;;;;;10531168;28;20027;-47
2022/10/11 21:02:21;;;;;;;10.68;4.68;;;;;;;;;;10530867;28;20024;-61
2022/10/11 21:07:21;;;;;;;6.45;3.92;;;;;;;;;;10531587;28;20056;-61
2022/10/11 21:12:22;;;;;;;12.77;4.53;;;;;;;;;;10531953;28;20032;-61
2022/10/11 21:17:22;;;;;;;6.50;3.90;;;;;;;;;;10531924;28;20073;-60
2022/10/11 21:22:22;;;;;;;6.72;4.50;;;;;;;;;;10539848;28;20183;-60
2022/10/11 21:27:23;;;;;;;7.50;3.83;;;;;;;;;;10539867;28;20608;-58
2022/10/11 21:32:24;;;;;;;7.03;4.00;;;;;;;;;;10539017;28;20141;-60
2022/10/11 21:37:24;;;;;;;4.83;3.37;;;;;;;;;;10539761;28;20044;-58
2022/10/11 21:42:24;;;;;;;6.15;4.00;;;;;;;;;;10539868;28;20056;-60
2022/10/11 21:47:24;;;;;;;7.97;4.30;;;;;;;;;;10539888;28;20024;-60
2022/10/11 21:52:25;;;;;;;5.03;3.97;;;;;;;;;;10538799;28;20437;-58
2022/10/11 21:57:25;;;;;;;7.75;4.38;;;;;;;;;;10539069;28;20028;-59
2022/10/11 22:02:25;;;;;;;4.67;2.97;;;;;;;;;;10539423;28;20073;-60
2022/10/11 22:07:25;;;;;;;5.88;3.65;;;;;;;;;;10539136;28;20421;-56
2022/10/11 22:12:26;;;;;;;9.18;3.45;;;;;;;;;;10537059;28;20031;-60
2022/10/11 22:17:26;;;;;;;5.43;3.53;;;;;;;;;;10538310;28;20028;-61
2022/10/11 22:22:26;;;;;;;8.38;3.63;;;;;;;;;;10538643;28;20028;-59
2022/10/11 22:27:27;;;;;;;7.45;3.50;;;;;;;;;;10538109;28;20038;-54
2022/10/11 22:32:27;;;;;;;6.93;3.80;;;;;;;;;;10536631;28;20166;-61
2022/10/11 22:37:27;;;;;;;6.93;3.45;;;;;;;;;;10536466;28;20031;-59
2022/10/11 22:42:28;;;;;;;10.48;3.60;;;;;;;;;;10537156;28;20028;-61
2022/10/11 22:47:28;;;;;;;3.67;2.95;;;;;;;;;;10537298;28;20028;-61
2022/10/11 22:52:28;;;;;;;10.88;3.30;;;;;;;;;;10536980;28;20123;-60
2022/10/11 22:57:29;;;;;;;9.50;3.22;;;;;;;;;;10537061;28;20031;-61
2022/10/11 23:02:29;;;;;;;4.63;3.03;;;;;;;;;;10536798;28;20016;-57
2022/10/11 23:07:29;;;;;;;9.25;3.45;;;;;;;;;;10537118;28;20020;-60
2022/10/11 23:12:29;;;;;;;4.78;3.20;;;;;;;;;;10536472;28;20081;-60
2022/10/11 23:17:30;;;;;;;4.38;3.03;;;;;;;;;;10536611;28;20024;-58
2022/10/11 23:22:30;;;;;;;4.68;3.00;;;;;;;;;;10535612;28;20020;-60
2022/10/11 23:27:30;;;;;;;4.40;3.08;;;;;;;;;;10535716;28;20120;-60
2022/10/11 23:32:31;;;;;;;4.03;3.00;;;;;;;;;;10535474;28;20024;-59
2022/10/11 23:37:31;;;;;;;4.50;2.40;;;;;;;;;;10536122;28;20080;-61
2022/10/11 23:42:31;;;;;;;7.25;3.45;;;;;;;;;;10534942;28;20437;-60
2022/10/11 23:47:32;;;;;;;5.45;2.92;;;;;;;;;;10535561;28;20024;-61
2022/10/11 23:52:32;;;;;;;3.50;2.60;;;;;;;;;;10534838;28;20081;-61
2022/10/11 23:57:32;;;;;;;6.78;3.45;;;;;;;;;;10534752;28;20124;-61
